Terminal Aerodrome Forecast
Issued by NWS

Home | Current Version | Previous Version | Text Only | Print | Product List | Glossary On
Versions: 1 2 3 4 5 6 7 8 9 10 11 12 13
000
FTUS44 KTSA 201700
TAFRVS
TAF
KRVS 201720Z 2018/2118 20004KT P6SM SCT050
     FM202100 06004KT P6SM BKN060
     FM210900 08003KT 4SM BR BKN040
      TEMPO 2110/2113 1SM BR
     FM211400 14005KT P6SM BKN025=

USA.gov is the U.S. government's official web portal to all federal, state and local government web resources and services.